sensor_id;sensor_type;location;lat;lon;timestamp;P1;durP1;ratioP1;P2;durP2;ratioP2
75289;SDS011;63883;48.996;20.804;2023-05-21T00:00:46;15.55;;;10.23;;
75289;SDS011;63883;48.996;20.804;2023-05-21T00:03:32;16.38;;;10.80;;
75289;SDS011;63883;48.996;20.804;2023-05-21T00:06:00;17.95;;;11.13;;
75289;SDS011;63883;48.996;20.804;2023-05-21T00:08:27;16.90;;;11.40;;
75289;SDS011;63883;48.996;20.804;2023-05-21T00:10:53;16.80;;;11.25;;
75289;SDS011;63883;48.996;20.804;2023-05-21T00:13:19;16.02;;;10.70;;
75289;SDS011;63883;48.996;20.804;2023-05-21T00:15:45;16.10;;;10.00;;
75289;SDS011;63883;48.996;20.804;2023-05-21T00:18:11;14.45;;;9.13;;
75289;SDS011;63883;48.996;20.804;2023-05-21T00:20:36;14.60;;;8.95;;
75289;SDS011;63883;48.996;20.804;2023-05-21T00:23:02;13.98;;;8.70;;
75289;SDS011;63883;48.996;20.804;2023-05-21T00:25:28;12.60;;;8.38;;
75289;SDS011;63883;48.996;20.804;2023-05-21T00:27:54;13.07;;;9.00;;
75289;SDS011;63883;48.996;20.804;2023-05-21T00:30:20;15.80;;;10.27;;
75289;SDS011;63883;48.996;20.804;2023-05-21T00:32:46;11.82;;;8.63;;
75289;SDS011;63883;48.996;20.804;2023-05-21T00:35:12;13.93;;;9.10;;
75289;SDS011;63883;48.996;20.804;2023-05-21T00:37:37;14.70;;;9.30;;
75289;SDS011;63883;48.996;20.804;2023-05-21T00:40:04;14.68;;;9.32;;
75289;SDS011;63883;48.996;20.804;2023-05-21T00:44:58;13.57;;;8.43;;
75289;SDS011;63883;48.996;20.804;2023-05-21T00:47:24;13.70;;;9.05;;
75289;SDS011;63883;48.996;20.804;2023-05-21T00:49:51;15.77;;;9.65;;
75289;SDS011;63883;48.996;20.804;2023-05-21T00:52:17;14.18;;;9.40;;
75289;SDS011;63883;48.996;20.804;2023-05-21T00:54:48;12.57;;;8.43;;
75289;SDS011;63883;48.996;20.804;2023-05-21T00:57:15;13.07;;;9.02;;
75289;SDS011;63883;48.996;20.804;2023-05-21T00:59:45;11.57;;;8.30;;
75289;SDS011;63883;48.996;20.804;2023-05-21T01:02:12;12.32;;;8.77;;
75289;SDS011;63883;48.996;20.804;2023-05-21T01:04:38;12.23;;;8.60;;
75289;SDS011;63883;48.996;20.804;2023-05-21T01:07:04;14.05;;;8.30;;
75289;SDS011;63883;48.996;20.804;2023-05-21T01:09:30;12.73;;;8.93;;
75289;SDS011;63883;48.996;20.804;2023-05-21T01:11:56;12.05;;;8.40;;
75289;SDS011;63883;48.996;20.804;2023-05-21T01:14:24;12.63;;;8.70;;
75289;SDS011;63883;48.996;20.804;2023-05-21T01:16:50;12.55;;;8.45;;
75289;SDS011;63883;48.996;20.804;2023-05-21T01:19:18;13.73;;;9.02;;
75289;SDS011;63883;48.996;20.804;2023-05-21T01:24:14;12.38;;;7.88;;
75289;SDS011;63883;48.996;20.804;2023-05-21T01:26:40;11.45;;;8.23;;
75289;SDS011;63883;48.996;20.804;2023-05-21T01:29:07;11.75;;;8.25;;
75289;SDS011;63883;48.996;20.804;2023-05-21T01:34:49;11.88;;;8.95;;
75289;SDS011;63883;48.996;20.804;2023-05-21T01:39:56;13.25;;;8.43;;
75289;SDS011;63883;48.996;20.804;2023-05-21T01:42:33;14.50;;;9.00;;
75289;SDS011;63883;48.996;20.804;2023-05-21T01:45:03;11.98;;;8.15;;
75289;SDS011;63883;48.996;20.804;2023-05-21T01:47:31;11.38;;;8.07;;
75289;SDS011;63883;48.996;20.804;2023-05-21T01:49:58;12.85;;;8.57;;
75289;SDS011;63883;48.996;20.804;2023-05-21T01:52:25;13.68;;;9.48;;
75289;SDS011;63883;48.996;20.804;2023-05-21T01:54:51;12.65;;;8.55;;
75289;SDS011;63883;48.996;20.804;2023-05-21T01:57:18;12.40;;;8.55;;
75289;SDS011;63883;48.996;20.804;2023-05-21T01:59:45;12.18;;;8.43;;
75289;SDS011;63883;48.996;20.804;2023-05-21T02:02:12;13.82;;;9.05;;
75289;SDS011;63883;48.996;20.804;2023-05-21T02:04:38;12.98;;;8.55;;
75289;SDS011;63883;48.996;20.804;2023-05-21T02:07:05;13.75;;;8.35;;
75289;SDS011;63883;48.996;20.804;2023-05-21T02:09:31;11.60;;;8.23;;
75289;SDS011;63883;48.996;20.804;2023-05-21T02:11:57;13.55;;;8.63;;
75289;SDS011;63883;48.996;20.804;2023-05-21T02:14:23;13.50;;;8.02;;
75289;SDS011;63883;48.996;20.804;2023-05-21T02:16:51;10.20;;;7.70;;
75289;SDS011;63883;48.996;20.804;2023-05-21T02:19:17;12.95;;;8.38;;
75289;SDS011;63883;48.996;20.804;2023-05-21T02:21:43;12.20;;;8.32;;
75289;SDS011;63883;48.996;20.804;2023-05-21T02:24:08;13.55;;;8.77;;
75289;SDS011;63883;48.996;20.804;2023-05-21T02:26:34;13.82;;;9.60;;
75289;SDS011;63883;48.996;20.804;2023-05-21T02:29:00;20.55;;;11.15;;
75289;SDS011;63883;48.996;20.804;2023-05-21T02:31:25;23.58;;;11.88;;
75289;SDS011;63883;48.996;20.804;2023-05-21T02:33:51;18.00;;;10.15;;
75289;SDS011;63883;48.996;20.804;2023-05-21T02:36:16;18.00;;;10.48;;
75289;SDS011;63883;48.996;20.804;2023-05-21T02:38:43;16.17;;;9.73;;
75289;SDS011;63883;48.996;20.804;2023-05-21T02:41:10;16.00;;;9.75;;
75289;SDS011;63883;48.996;20.804;2023-05-21T02:43:36;17.75;;;10.30;;
75289;SDS011;63883;48.996;20.804;2023-05-21T02:46:03;18.50;;;10.27;;
75289;SDS011;63883;48.996;20.804;2023-05-21T02:48:30;14.93;;;8.45;;
75289;SDS011;63883;48.996;20.804;2023-05-21T02:50:57;16.23;;;9.73;;
75289;SDS011;63883;48.996;20.804;2023-05-21T02:53:23;18.90;;;9.88;;
75289;SDS011;63883;48.996;20.804;2023-05-21T02:55:49;18.70;;;10.40;;
75289;SDS011;63883;48.996;20.804;2023-05-21T02:58:15;26.98;;;11.80;;
75289;SDS011;63883;48.996;20.804;2023-05-21T03:00:41;16.90;;;9.25;;
75289;SDS011;63883;48.996;20.804;2023-05-21T03:03:06;13.52;;;9.07;;
75289;SDS011;63883;48.996;20.804;2023-05-21T03:05:32;19.27;;;10.30;;
75289;SDS011;63883;48.996;20.804;2023-05-21T03:07:58;23.75;;;11.50;;
75289;SDS011;63883;48.996;20.804;2023-05-21T03:10:23;20.83;;;11.02;;
75289;SDS011;63883;48.996;20.804;2023-05-21T03:12:49;21.33;;;11.07;;
75289;SDS011;63883;48.996;20.804;2023-05-21T03:15:15;21.95;;;11.70;;
75289;SDS011;63883;48.996;20.804;2023-05-21T03:17:41;20.60;;;11.25;;
75289;SDS011;63883;48.996;20.804;2023-05-21T03:20:08;20.30;;;11.80;;
75289;SDS011;63883;48.996;20.804;2023-05-21T03:22:43;20.35;;;11.00;;
75289;SDS011;63883;48.996;20.804;2023-05-21T03:25:10;18.17;;;11.07;;
75289;SDS011;63883;48.996;20.804;2023-05-21T03:27:37;16.95;;;10.25;;
75289;SDS011;63883;48.996;20.804;2023-05-21T03:30:03;18.00;;;10.75;;
75289;SDS011;63883;48.996;20.804;2023-05-21T03:32:30;18.05;;;11.75;;
75289;SDS011;63883;48.996;20.804;2023-05-21T03:34:58;22.10;;;13.32;;
75289;SDS011;63883;48.996;20.804;2023-05-21T03:37:24;21.88;;;12.27;;
75289;SDS011;63883;48.996;20.804;2023-05-21T03:39:49;26.58;;;15.30;;
75289;SDS011;63883;48.996;20.804;2023-05-21T03:42:15;22.42;;;13.68;;
75289;SDS011;63883;48.996;20.804;2023-05-21T03:44:41;18.25;;;10.73;;
75289;SDS011;63883;48.996;20.804;2023-05-21T03:47:07;17.90;;;11.50;;
75289;SDS011;63883;48.996;20.804;2023-05-21T03:49:32;17.45;;;11.88;;
75289;SDS011;63883;48.996;20.804;2023-05-21T03:51:58;20.02;;;12.85;;
75289;SDS011;63883;48.996;20.804;2023-05-21T03:54:23;18.30;;;12.23;;
75289;SDS011;63883;48.996;20.804;2023-05-21T03:56:50;15.10;;;10.30;;
75289;SDS011;63883;48.996;20.804;2023-05-21T03:59:15;16.35;;;10.32;;
75289;SDS011;63883;48.996;20.804;2023-05-21T04:01:41;13.65;;;9.43;;
75289;SDS011;63883;48.996;20.804;2023-05-21T04:04:07;16.52;;;10.23;;
75289;SDS011;63883;48.996;20.804;2023-05-21T04:06:33;18.77;;;11.73;;
75289;SDS011;63883;48.996;20.804;2023-05-21T04:08:59;16.38;;;10.40;;
75289;SDS011;63883;48.996;20.804;2023-05-21T04:11:25;16.65;;;10.68;;
75289;SDS011;63883;48.996;20.804;2023-05-21T04:13:51;17.92;;;11.60;;
75289;SDS011;63883;48.996;20.804;2023-05-21T04:16:17;18.02;;;10.52;;
75289;SDS011;63883;48.996;20.804;2023-05-21T04:18:43;15.98;;;10.77;;
75289;SDS011;63883;48.996;20.804;2023-05-21T04:21:10;17.77;;;11.18;;
75289;SDS011;63883;48.996;20.804;2023-05-21T04:23:36;15.63;;;10.55;;
75289;SDS011;63883;48.996;20.804;2023-05-21T04:26:01;17.30;;;11.32;;
75289;SDS011;63883;48.996;20.804;2023-05-21T04:28:27;17.40;;;10.57;;
75289;SDS011;63883;48.996;20.804;2023-05-21T04:30:53;17.85;;;11.43;;
75289;SDS011;63883;48.996;20.804;2023-05-21T04:33:20;17.77;;;11.32;;
75289;SDS011;63883;48.996;20.804;2023-05-21T04:35:49;18.15;;;11.40;;
75289;SDS011;63883;48.996;20.804;2023-05-21T04:38:16;17.85;;;11.25;;
75289;SDS011;63883;48.996;20.804;2023-05-21T04:40:47;17.77;;;11.35;;
75289;SDS011;63883;48.996;20.804;2023-05-21T04:43:17;17.25;;;11.50;;
75289;SDS011;63883;48.996;20.804;2023-05-21T04:45:50;15.73;;;10.77;;
75289;SDS011;63883;48.996;20.804;2023-05-21T04:48:17;18.98;;;11.25;;
75289;SDS011;63883;48.996;20.804;2023-05-21T04:50:43;16.50;;;11.32;;
75289;SDS011;63883;48.996;20.804;2023-05-21T04:53:08;16.35;;;11.13;;
75289;SDS011;63883;48.996;20.804;2023-05-21T04:55:34;15.60;;;10.43;;
75289;SDS011;63883;48.996;20.804;2023-05-21T04:58:06;16.10;;;10.63;;
75289;SDS011;63883;48.996;20.804;2023-05-21T05:00:36;16.80;;;10.77;;
75289;SDS011;63883;48.996;20.804;2023-05-21T05:03:02;17.05;;;10.50;;
75289;SDS011;63883;48.996;20.804;2023-05-21T05:05:28;14.52;;;10.20;;
75289;SDS011;63883;48.996;20.804;2023-05-21T05:07:54;14.73;;;10.55;;
75289;SDS011;63883;48.996;20.804;2023-05-21T05:10:21;16.85;;;11.18;;
75289;SDS011;63883;48.996;20.804;2023-05-21T05:12:47;16.50;;;11.40;;
75289;SDS011;63883;48.996;20.804;2023-05-21T05:15:13;17.15;;;11.32;;
75289;SDS011;63883;48.996;20.804;2023-05-21T05:17:39;16.23;;;11.55;;
75289;SDS011;63883;48.996;20.804;2023-05-21T05:20:06;17.35;;;11.13;;
75289;SDS011;63883;48.996;20.804;2023-05-21T05:22:32;18.40;;;11.75;;
75289;SDS011;63883;48.996;20.804;2023-05-21T05:24:58;16.65;;;12.05;;
75289;SDS011;63883;48.996;20.804;2023-05-21T05:27:23;17.67;;;11.52;;
75289;SDS011;63883;48.996;20.804;2023-05-21T05:29:49;18.52;;;11.30;;
75289;SDS011;63883;48.996;20.804;2023-05-21T05:32:14;15.55;;;11.00;;
75289;SDS011;63883;48.996;20.804;2023-05-21T05:34:40;19.67;;;12.15;;
75289;SDS011;63883;48.996;20.804;2023-05-21T05:37:06;15.27;;;11.18;;
75289;SDS011;63883;48.996;20.804;2023-05-21T05:39:32;15.15;;;11.40;;
75289;SDS011;63883;48.996;20.804;2023-05-21T05:41:58;15.57;;;10.35;;
75289;SDS011;63883;48.996;20.804;2023-05-21T05:44:24;14.80;;;10.38;;
75289;SDS011;63883;48.996;20.804;2023-05-21T05:46:49;16.17;;;10.32;;
75289;SDS011;63883;48.996;20.804;2023-05-21T05:49:15;27.90;;;21.65;;
75289;SDS011;63883;48.996;20.804;2023-05-21T05:51:41;14.55;;;11.40;;
75289;SDS011;63883;48.996;20.804;2023-05-21T05:54:06;17.17;;;12.57;;
75289;SDS011;63883;48.996;20.804;2023-05-21T05:56:32;14.43;;;10.45;;
75289;SDS011;63883;48.996;20.804;2023-05-21T05:58:58;16.23;;;12.27;;
75289;SDS011;63883;48.996;20.804;2023-05-21T06:01:23;17.05;;;11.00;;
75289;SDS011;63883;48.996;20.804;2023-05-21T06:03:50;13.63;;;10.20;;
75289;SDS011;63883;48.996;20.804;2023-05-21T06:06:17;14.93;;;10.25;;
75289;SDS011;63883;48.996;20.804;2023-05-21T06:08:43;15.60;;;11.20;;
75289;SDS011;63883;48.996;20.804;2023-05-21T06:11:09;14.13;;;10.45;;
75289;SDS011;63883;48.996;20.804;2023-05-21T06:13:35;16.75;;;10.57;;
75289;SDS011;63883;48.996;20.804;2023-05-21T06:16:01;15.20;;;10.18;;
75289;SDS011;63883;48.996;20.804;2023-05-21T06:18:28;12.75;;;9.75;;
75289;SDS011;63883;48.996;20.804;2023-05-21T06:20:53;12.52;;;9.88;;
75289;SDS011;63883;48.996;20.804;2023-05-21T06:23:19;13.93;;;9.90;;
75289;SDS011;63883;48.996;20.804;2023-05-21T06:25:45;15.57;;;10.18;;
75289;SDS011;63883;48.996;20.804;2023-05-21T06:28:11;12.32;;;9.85;;
75289;SDS011;63883;48.996;20.804;2023-05-21T06:30:36;14.95;;;10.10;;
75289;SDS011;63883;48.996;20.804;2023-05-21T06:33:02;13.05;;;9.63;;
75289;SDS011;63883;48.996;20.804;2023-05-21T06:35:27;13.95;;;10.50;;
75289;SDS011;63883;48.996;20.804;2023-05-21T06:37:53;14.82;;;10.90;;
75289;SDS011;63883;48.996;20.804;2023-05-21T06:40:19;12.90;;;9.98;;
75289;SDS011;63883;48.996;20.804;2023-05-21T06:42:46;12.98;;;9.10;;
75289;SDS011;63883;48.996;20.804;2023-05-21T06:45:11;14.38;;;10.10;;
75289;SDS011;63883;48.996;20.804;2023-05-21T06:47:37;12.40;;;9.68;;
75289;SDS011;63883;48.996;20.804;2023-05-21T06:50:03;12.63;;;10.48;;
75289;SDS011;63883;48.996;20.804;2023-05-21T06:52:29;13.52;;;10.35;;
75289;SDS011;63883;48.996;20.804;2023-05-21T06:54:55;15.25;;;9.95;;
75289;SDS011;63883;48.996;20.804;2023-05-21T06:57:21;12.25;;;9.57;;
75289;SDS011;63883;48.996;20.804;2023-05-21T06:59:47;12.63;;;9.70;;
75289;SDS011;63883;48.996;20.804;2023-05-21T07:02:13;13.95;;;9.98;;
75289;SDS011;63883;48.996;20.804;2023-05-21T07:04:38;13.15;;;9.75;;
75289;SDS011;63883;48.996;20.804;2023-05-21T07:07:04;14.50;;;10.27;;
75289;SDS011;63883;48.996;20.804;2023-05-21T07:09:30;11.95;;;8.73;;
75289;SDS011;63883;48.996;20.804;2023-05-21T07:11:55;12.38;;;9.60;;
75289;SDS011;63883;48.996;20.804;2023-05-21T07:14:23;12.98;;;9.35;;
75289;SDS011;63883;48.996;20.804;2023-05-21T07:16:49;10.95;;;8.50;;
75289;SDS011;63883;48.996;20.804;2023-05-21T07:19:15;11.55;;;8.85;;
75289;SDS011;63883;48.996;20.804;2023-05-21T07:21:41;10.52;;;8.30;;
75289;SDS011;63883;48.996;20.804;2023-05-21T07:24:06;10.50;;;8.35;;
75289;SDS011;63883;48.996;20.804;2023-05-21T07:26:32;11.30;;;8.52;;
75289;SDS011;63883;48.996;20.804;2023-05-21T07:28:58;10.85;;;8.88;;
75289;SDS011;63883;48.996;20.804;2023-05-21T07:31:23;11.15;;;8.88;;
75289;SDS011;63883;48.996;20.804;2023-05-21T07:33:49;13.57;;;9.07;;
75289;SDS011;63883;48.996;20.804;2023-05-21T07:36:15;11.60;;;9.60;;
75289;SDS011;63883;48.996;20.804;2023-05-21T07:38:41;12.18;;;8.20;;
75289;SDS011;63883;48.996;20.804;2023-05-21T07:41:08;11.52;;;8.98;;
75289;SDS011;63883;48.996;20.804;2023-05-21T07:43:34;12.48;;;9.63;;
75289;SDS011;63883;48.996;20.804;2023-05-21T07:46:01;10.40;;;8.68;;
75289;SDS011;63883;48.996;20.804;2023-05-21T07:48:26;10.10;;;8.45;;
75289;SDS011;63883;48.996;20.804;2023-05-21T07:50:52;10.60;;;8.63;;
75289;SDS011;63883;48.996;20.804;2023-05-21T07:53:18;9.93;;;8.18;;
75289;SDS011;63883;48.996;20.804;2023-05-21T07:55:45;11.48;;;8.75;;
75289;SDS011;63883;48.996;20.804;2023-05-21T07:58:14;11.88;;;9.88;;
75289;SDS011;63883;48.996;20.804;2023-05-21T08:00:45;11.52;;;8.57;;
75289;SDS011;63883;48.996;20.804;2023-05-21T08:03:14;11.98;;;9.48;;
75289;SDS011;63883;48.996;20.804;2023-05-21T08:05:44;12.32;;;9.27;;
75289;SDS011;63883;48.996;20.804;2023-05-21T08:08:15;10.05;;;8.75;;
75289;SDS011;63883;48.996;20.804;2023-05-21T08:10:42;10.18;;;8.52;;
75289;SDS011;63883;48.996;20.804;2023-05-21T08:13:08;10.85;;;8.63;;
75289;SDS011;63883;48.996;20.804;2023-05-21T08:15:35;10.38;;;8.73;;
75289;SDS011;63883;48.996;20.804;2023-05-21T08:18:01;9.98;;;8.45;;
75289;SDS011;63883;48.996;20.804;2023-05-21T08:20:27;12.30;;;8.80;;
75289;SDS011;63883;48.996;20.804;2023-05-21T08:22:55;11.98;;;8.60;;
75289;SDS011;63883;48.996;20.804;2023-05-21T08:25:21;10.75;;;8.65;;
75289;SDS011;63883;48.996;20.804;2023-05-21T08:27:46;9.52;;;7.65;;
75289;SDS011;63883;48.996;20.804;2023-05-21T08:30:12;8.88;;;7.95;;
75289;SDS011;63883;48.996;20.804;2023-05-21T08:32:39;11.55;;;8.05;;
75289;SDS011;63883;48.996;20.804;2023-05-21T08:35:05;8.50;;;7.53;;
75289;SDS011;63883;48.996;20.804;2023-05-21T08:37:31;9.30;;;7.50;;
75289;SDS011;63883;48.996;20.804;2023-05-21T08:39:57;9.25;;;6.97;;
75289;SDS011;63883;48.996;20.804;2023-05-21T08:42:33;10.05;;;7.07;;
75289;SDS011;63883;48.996;20.804;2023-05-21T08:45:05;8.23;;;6.93;;
75289;SDS011;63883;48.996;20.804;2023-05-21T08:47:33;7.88;;;7.07;;
75289;SDS011;63883;48.996;20.804;2023-05-21T08:50:01;7.80;;;6.22;;
75289;SDS011;63883;48.996;20.804;2023-05-21T08:52:29;8.05;;;6.32;;
75289;SDS011;63883;48.996;20.804;2023-05-21T08:54:56;7.20;;;5.93;;
75289;SDS011;63883;48.996;20.804;2023-05-21T08:57:22;8.43;;;6.25;;
75289;SDS011;63883;48.996;20.804;2023-05-21T08:59:51;6.28;;;5.65;;
75289;SDS011;63883;48.996;20.804;2023-05-21T09:02:17;5.95;;;5.35;;
75289;SDS011;63883;48.996;20.804;2023-05-21T09:04:44;7.30;;;5.28;;
75289;SDS011;63883;48.996;20.804;2023-05-21T09:07:13;5.90;;;5.00;;
75289;SDS011;63883;48.996;20.804;2023-05-21T09:09:56;6.13;;;5.53;;
75289;SDS011;63883;48.996;20.804;2023-05-21T09:12:24;7.68;;;5.35;;
75289;SDS011;63883;48.996;20.804;2023-05-21T09:14:52;7.78;;;5.45;;
75289;SDS011;63883;48.996;20.804;2023-05-21T09:17:17;7.40;;;5.50;;
75289;SDS011;63883;48.996;20.804;2023-05-21T09:22:31;5.75;;;5.15;;
75289;SDS011;63883;48.996;20.804;2023-05-21T09:24:57;6.78;;;5.32;;
75289;SDS011;63883;48.996;20.804;2023-05-21T09:27:23;6.50;;;4.68;;
75289;SDS011;63883;48.996;20.804;2023-05-21T09:29:49;6.20;;;4.68;;
75289;SDS011;63883;48.996;20.804;2023-05-21T09:32:15;5.97;;;4.85;;
75289;SDS011;63883;48.996;20.804;2023-05-21T09:34:42;6.47;;;4.50;;
75289;SDS011;63883;48.996;20.804;2023-05-21T09:37:07;5.70;;;4.55;;
75289;SDS011;63883;48.996;20.804;2023-05-21T09:39:33;5.10;;;4.60;;
75289;SDS011;63883;48.996;20.804;2023-05-21T09:42:00;5.60;;;4.80;;
75289;SDS011;63883;48.996;20.804;2023-05-21T09:44:26;6.60;;;4.63;;
75289;SDS011;63883;48.996;20.804;2023-05-21T09:46:58;5.70;;;4.55;;
75289;SDS011;63883;48.996;20.804;2023-05-21T09:49:24;5.63;;;4.32;;
75289;SDS011;63883;48.996;20.804;2023-05-21T09:51:56;5.28;;;4.25;;
75289;SDS011;63883;48.996;20.804;2023-05-21T09:54:22;5.13;;;4.60;;
75289;SDS011;63883;48.996;20.804;2023-05-21T09:56:51;6.40;;;4.45;;
75289;SDS011;63883;48.996;20.804;2023-05-21T09:59:18;5.00;;;4.50;;
75289;SDS011;63883;48.996;20.804;2023-05-21T10:01:45;3.92;;;2.78;;
75289;SDS011;63883;48.996;20.804;2023-05-21T10:04:11;3.50;;;3.20;;
75289;SDS011;63883;48.996;20.804;2023-05-21T10:06:40;4.00;;;2.85;;
75289;SDS011;63883;48.996;20.804;2023-05-21T10:09:10;4.13;;;2.90;;
75289;SDS011;63883;48.996;20.804;2023-05-21T10:11:39;3.40;;;2.80;;
75289;SDS011;63883;48.996;20.804;2023-05-21T10:14:30;4.35;;;3.05;;
75289;SDS011;63883;48.996;20.804;2023-05-21T10:16:56;2.90;;;2.70;;
75289;SDS011;63883;48.996;20.804;2023-05-21T10:19:23;3.03;;;2.72;;
75289;SDS011;63883;48.996;20.804;2023-05-21T10:21:49;5.43;;;2.95;;
75289;SDS011;63883;48.996;20.804;2023-05-21T10:24:17;3.13;;;2.67;;
75289;SDS011;63883;48.996;20.804;2023-05-21T10:26:42;3.20;;;2.67;;
75289;SDS011;63883;48.996;20.804;2023-05-21T10:29:09;4.78;;;2.83;;
75289;SDS011;63883;48.996;20.804;2023-05-21T10:31:37;3.65;;;2.70;;
75289;SDS011;63883;48.996;20.804;2023-05-21T10:34:03;2.72;;;2.50;;
75289;SDS011;63883;48.996;20.804;2023-05-21T10:36:30;2.78;;;2.53;;
75289;SDS011;63883;48.996;20.804;2023-05-21T10:38:57;3.17;;;2.70;;
75289;SDS011;63883;48.996;20.804;2023-05-21T10:41:24;3.42;;;2.67;;
75289;SDS011;63883;48.996;20.804;2023-05-21T10:43:58;4.57;;;2.75;;
75289;SDS011;63883;48.996;20.804;2023-05-21T10:46:56;3.97;;;2.95;;
75289;SDS011;63883;48.996;20.804;2023-05-21T11:01:02;5.10;;;2.80;;
75289;SDS011;63883;48.996;20.804;2023-05-21T11:03:29;3.35;;;2.75;;
75289;SDS011;63883;48.996;20.804;2023-05-21T11:05:57;3.65;;;2.90;;
75289;SDS011;63883;48.996;20.804;2023-05-21T11:08:27;4.57;;;2.95;;
75289;SDS011;63883;48.996;20.804;2023-05-21T11:11:00;3.20;;;2.90;;
75289;SDS011;63883;48.996;20.804;2023-05-21T11:13:27;5.13;;;2.90;;
75289;SDS011;63883;48.996;20.804;2023-05-21T11:16:12;3.30;;;3.00;;
75289;SDS011;63883;48.996;20.804;2023-05-21T11:26:19;3.50;;;2.70;;
75289;SDS011;63883;48.996;20.804;2023-05-21T11:28:49;3.25;;;3.00;;
75289;SDS011;63883;48.996;20.804;2023-05-21T11:31:45;3.15;;;2.85;;
75289;SDS011;63883;48.996;20.804;2023-05-21T11:36:47;3.75;;;2.75;;
75289;SDS011;63883;48.996;20.804;2023-05-21T11:39:17;3.83;;;3.03;;
75289;SDS011;63883;48.996;20.804;2023-05-21T11:44:36;3.10;;;2.80;;
75289;SDS011;63883;48.996;20.804;2023-05-21T11:47:16;2.75;;;2.55;;
75289;SDS011;63883;48.996;20.804;2023-05-21T11:49:43;3.55;;;2.67;;
75289;SDS011;63883;48.996;20.804;2023-05-21T11:52:10;3.25;;;2.95;;
75289;SDS011;63883;48.996;20.804;2023-05-21T11:54:44;5.97;;;2.95;;
75289;SDS011;63883;48.996;20.804;2023-05-21T11:57:12;3.70;;;2.80;;
75289;SDS011;63883;48.996;20.804;2023-05-21T11:59:41;3.08;;;2.70;;
75289;SDS011;63883;48.996;20.804;2023-05-21T12:02:07;6.07;;;3.20;;
75289;SDS011;63883;48.996;20.804;2023-05-21T12:04:33;2.80;;;2.60;;
75289;SDS011;63883;48.996;20.804;2023-05-21T12:07:06;3.47;;;2.70;;
75289;SDS011;63883;48.996;20.804;2023-05-21T12:09:40;3.35;;;2.60;;
75289;SDS011;63883;48.996;20.804;2023-05-21T12:12:19;2.72;;;2.47;;
75289;SDS011;63883;48.996;20.804;2023-05-21T12:14:47;3.33;;;2.65;;
75289;SDS011;63883;48.996;20.804;2023-05-21T12:19:40;3.88;;;2.75;;
75289;SDS011;63883;48.996;20.804;2023-05-21T12:22:07;3.00;;;2.70;;
75289;SDS011;63883;48.996;20.804;2023-05-21T12:24:34;3.53;;;2.72;;
75289;SDS011;63883;48.996;20.804;2023-05-21T12:27:01;3.80;;;2.88;;
75289;SDS011;63883;48.996;20.804;2023-05-21T12:29:34;3.45;;;2.80;;
75289;SDS011;63883;48.996;20.804;2023-05-21T12:32:06;3.83;;;3.00;;
75289;SDS011;63883;48.996;20.804;2023-05-21T12:39:44;3.20;;;2.90;;
75289;SDS011;63883;48.996;20.804;2023-05-21T12:42:11;3.95;;;2.97;;
75289;SDS011;63883;48.996;20.804;2023-05-21T12:44:37;4.07;;;2.92;;
75289;SDS011;63883;48.996;20.804;2023-05-21T12:47:05;3.33;;;3.03;;
75289;SDS011;63883;48.996;20.804;2023-05-21T12:49:34;4.22;;;3.00;;
75289;SDS011;63883;48.996;20.804;2023-05-21T12:52:02;3.85;;;3.10;;
75289;SDS011;63883;48.996;20.804;2023-05-21T12:54:33;4.25;;;3.10;;
75289;SDS011;63883;48.996;20.804;2023-05-21T12:57:09;3.70;;;3.00;;
75289;SDS011;63883;48.996;20.804;2023-05-21T12:59:46;4.10;;;3.13;;
75289;SDS011;63883;48.996;20.804;2023-05-21T13:02:26;3.35;;;3.05;;
75289;SDS011;63883;48.996;20.804;2023-05-21T13:05:00;3.72;;;2.95;;
75289;SDS011;63883;48.996;20.804;2023-05-21T13:07:28;3.60;;;2.97;;
75289;SDS011;63883;48.996;20.804;2023-05-21T13:09:55;3.35;;;2.90;;
75289;SDS011;63883;48.996;20.804;2023-05-21T13:12:28;3.25;;;2.95;;
75289;SDS011;63883;48.996;20.804;2023-05-21T13:14:55;3.30;;;3.00;;
75289;SDS011;63883;48.996;20.804;2023-05-21T13:17:23;4.40;;;2.95;;
75289;SDS011;63883;48.996;20.804;2023-05-21T13:22:38;3.53;;;3.13;;
75289;SDS011;63883;48.996;20.804;2023-05-21T13:25:12;3.40;;;3.10;;
75289;SDS011;63883;48.996;20.804;2023-05-21T13:27:45;3.72;;;3.15;;
75289;SDS011;63883;48.996;20.804;2023-05-21T13:30:11;3.08;;;2.78;;
75289;SDS011;63883;48.996;20.804;2023-05-21T13:32:38;4.60;;;3.20;;
75289;SDS011;63883;48.996;20.804;2023-05-21T13:35:04;3.40;;;3.05;;
75289;SDS011;63883;48.996;20.804;2023-05-21T13:37:31;3.90;;;3.15;;
75289;SDS011;63883;48.996;20.804;2023-05-21T13:39:58;3.92;;;2.80;;
75289;SDS011;63883;48.996;20.804;2023-05-21T13:42:25;4.07;;;3.20;;
75289;SDS011;63883;48.996;20.804;2023-05-21T13:44:51;4.05;;;3.30;;
75289;SDS011;63883;48.996;20.804;2023-05-21T13:47:17;6.80;;;3.25;;
75289;SDS011;63883;48.996;20.804;2023-05-21T13:49:43;5.07;;;3.38;;
75289;SDS011;63883;48.996;20.804;2023-05-21T13:52:08;4.47;;;3.13;;
75289;SDS011;63883;48.996;20.804;2023-05-21T13:54:34;4.85;;;3.05;;
75289;SDS011;63883;48.996;20.804;2023-05-21T13:57:00;4.90;;;3.13;;
75289;SDS011;63883;48.996;20.804;2023-05-21T13:59:26;3.30;;;3.00;;
75289;SDS011;63883;48.996;20.804;2023-05-21T14:01:52;3.90;;;3.17;;
75289;SDS011;63883;48.996;20.804;2023-05-21T14:04:18;3.60;;;2.97;;
75289;SDS011;63883;48.996;20.804;2023-05-21T14:06:45;3.00;;;2.80;;
75289;SDS011;63883;48.996;20.804;2023-05-21T14:09:11;4.05;;;3.20;;
75289;SDS011;63883;48.996;20.804;2023-05-21T14:11:37;3.38;;;3.08;;
75289;SDS011;63883;48.996;20.804;2023-05-21T14:14:02;6.15;;;3.35;;
75289;SDS011;63883;48.996;20.804;2023-05-21T14:16:29;3.40;;;3.10;;
75289;SDS011;63883;48.996;20.804;2023-05-21T14:18:55;4.05;;;3.22;;
75289;SDS011;63883;48.996;20.804;2023-05-21T14:21:22;3.50;;;3.20;;
75289;SDS011;63883;48.996;20.804;2023-05-21T14:23:48;5.63;;;3.30;;
75289;SDS011;63883;48.996;20.804;2023-05-21T14:26:14;4.20;;;3.15;;
75289;SDS011;63883;48.996;20.804;2023-05-21T14:28:41;3.50;;;3.20;;
75289;SDS011;63883;48.996;20.804;2023-05-21T14:31:08;4.70;;;3.30;;
75289;SDS011;63883;48.996;20.804;2023-05-21T14:33:34;4.93;;;3.03;;
75289;SDS011;63883;48.996;20.804;2023-05-21T14:36:01;3.55;;;3.13;;
75289;SDS011;63883;48.996;20.804;2023-05-21T14:38:26;3.85;;;3.40;;
75289;SDS011;63883;48.996;20.804;2023-05-21T14:40:53;3.58;;;3.10;;
75289;SDS011;63883;48.996;20.804;2023-05-21T14:43:19;3.70;;;2.95;;
75289;SDS011;63883;48.996;20.804;2023-05-21T14:45:45;5.18;;;3.20;;
75289;SDS011;63883;48.996;20.804;2023-05-21T14:48:10;6.07;;;3.35;;
75289;SDS011;63883;48.996;20.804;2023-05-21T14:50:37;7.32;;;3.10;;
75289;SDS011;63883;48.996;20.804;2023-05-21T14:53:04;5.93;;;3.35;;
75289;SDS011;63883;48.996;20.804;2023-05-21T14:55:30;5.32;;;2.95;;
75289;SDS011;63883;48.996;20.804;2023-05-21T14:57:57;3.58;;;3.10;;
75289;SDS011;63883;48.996;20.804;2023-05-21T15:00:23;3.42;;;2.90;;
75289;SDS011;63883;48.996;20.804;2023-05-21T15:02:49;4.00;;;2.97;;
75289;SDS011;63883;48.996;20.804;2023-05-21T15:05:16;3.65;;;3.33;;
75289;SDS011;63883;48.996;20.804;2023-05-21T15:07:42;3.55;;;3.05;;
75289;SDS011;63883;48.996;20.804;2023-05-21T15:10:08;3.40;;;3.10;;
75289;SDS011;63883;48.996;20.804;2023-05-21T15:12:35;5.55;;;2.90;;